createdAt,value
2022-07-29T00:00:29.184Z,0.00
2022-07-29T00:01:29.335Z,0.00
2022-07-29T00:02:29.632Z,0.00
2022-07-29T00:03:29.751Z,0.00
2022-07-29T00:04:29.999Z,0.00
2022-07-29T00:05:30.051Z,0.00
2022-07-29T00:06:30.232Z,0.00
2022-07-29T00:07:30.407Z,0.00
2022-07-29T00:08:30.562Z,0.00
2022-07-29T00:09:30.723Z,0.00
2022-07-29T00:10:30.878Z,0.00
2022-07-29T00:11:31.065Z,0.00
2022-07-29T00:12:31.277Z,0.00
2022-07-29T00:13:31.779Z,0.00
2022-07-29T00:14:31.587Z,0.00
2022-07-29T00:15:31.755Z,0.00
2022-07-29T00:16:31.973Z,0.00
2022-07-29T00:17:32.086Z,0.00
2022-07-29T00:18:32.247Z,0.00
2022-07-29T00:19:32.396Z,0.00
2022-07-29T00:20:32.587Z,0.00
2022-07-29T00:21:32.751Z,0.00
2022-07-29T00:22:32.914Z,0.00
2022-07-29T00:23:36.728Z,0.00
2022-07-29T00:24:33.249Z,0.00
2022-07-29T00:25:33.910Z,0.00
2022-07-29T00:26:33.642Z,0.00
2022-07-29T00:27:33.786Z,0.00
2022-07-29T00:28:33.984Z,0.00
2022-07-29T00:29:35.080Z,0.00
2022-07-29T00:30:34.322Z,0.00
2022-07-29T00:31:34.537Z,0.00
2022-07-29T00:32:34.641Z,0.00
2022-07-29T00:33:34.803Z,0.00
2022-07-29T00:34:34.962Z,0.00
2022-07-29T00:35:35.142Z,0.00
2022-07-29T00:36:35.302Z,0.00
2022-07-29T00:37:35.463Z,0.00
2022-07-29T00:38:35.624Z,0.00
2022-07-29T00:39:35.780Z,0.00
2022-07-29T00:40:35.986Z,0.00
2022-07-29T00:41:36.143Z,0.00
2022-07-29T00:42:36.305Z,0.00
2022-07-29T00:43:36.462Z,0.00
2022-07-29T00:44:36.667Z,0.00
2022-07-29T00:45:36.836Z,0.00
2022-07-29T00:46:37.056Z,0.00
2022-07-29T00:47:37.162Z,0.00
2022-07-29T00:48:37.394Z,0.00
2022-07-29T00:49:37.516Z,0.00
2022-07-29T00:50:37.668Z,0.00
2022-07-29T00:51:37.829Z,0.00
2022-07-29T00:52:37.992Z,0.00
2022-07-29T00:53:38.149Z,0.00
2022-07-29T00:54:43.917Z,0.00
2022-07-29T00:55:39.479Z,0.00
2022-07-29T00:56:38.654Z,0.00
2022-07-29T00:57:38.814Z,0.00
2022-07-29T00:58:38.979Z,0.00
2022-07-29T00:59:39.133Z,0.00
2022-07-29T01:00:39.395Z,0.00
2022-07-29T01:01:39.550Z,0.00
2022-07-29T01:02:39.676Z,0.00
2022-07-29T01:03:39.831Z,0.00
2022-07-29T01:04:40.033Z,0.00
2022-07-29T01:05:49.899Z,0.00
2022-07-29T01:06:41.360Z,0.00
2022-07-29T01:07:40.545Z,0.00
2022-07-29T01:08:40.703Z,0.00
2022-07-29T01:09:46.097Z,0.00
2022-07-29T01:10:42.093Z,0.00
2022-07-29T01:11:41.235Z,0.00
2022-07-29T01:12:41.399Z,0.00
2022-07-29T01:13:41.555Z,0.00
2022-07-29T01:14:41.745Z,0.00
2022-07-29T01:15:41.899Z,0.00
2022-07-29T01:16:43.171Z,0.00
2022-07-29T01:17:52.614Z,0.00
2022-07-29T01:18:43.458Z,0.00
2022-07-29T01:19:42.643Z,0.00
2022-07-29T01:20:42.818Z,0.00
2022-07-29T01:21:42.977Z,0.00
2022-07-29T01:22:43.144Z,0.00
2022-07-29T01:23:43.296Z,0.00
2022-07-29T01:24:43.455Z,0.00
2022-07-29T01:25:43.630Z,0.00
2022-07-29T01:26:43.780Z,0.00
2022-07-29T01:27:43.940Z,0.00
2022-07-29T01:28:44.100Z,0.00
2022-07-29T01:29:44.256Z,0.00
2022-07-29T01:30:44.443Z,0.00
2022-07-29T01:31:58.599Z,0.00
2022-07-29T01:32:45.786Z,0.00
2022-07-29T01:33:44.963Z,0.00
2022-07-29T01:34:45.141Z,0.00
2022-07-29T01:35:45.297Z,0.00
2022-07-29T01:36:45.495Z,0.00
2022-07-29T01:37:45.647Z,0.00
2022-07-29T01:38:45.838Z,0.00
2022-07-29T01:39:46.010Z,0.00
2022-07-29T01:40:46.164Z,0.00
2022-07-29T01:41:46.324Z,0.00
2022-07-29T01:42:46.519Z,0.00
2022-07-29T01:43:46.688Z,0.00
2022-07-29T01:44:46.856Z,0.00
2022-07-29T01:45:47.014Z,0.00
2022-07-29T01:46:47.223Z,0.00
2022-07-29T01:47:47.348Z,0.00
2022-07-29T01:48:47.672Z,0.00
2022-07-29T01:49:47.738Z,0.00
2022-07-29T01:50:47.867Z,0.00
2022-07-29T01:51:48.018Z,0.00
2022-07-29T01:52:48.199Z,0.00
2022-07-29T01:53:48.368Z,0.00
2022-07-29T01:54:48.514Z,0.00
2022-07-29T01:55:48.679Z,0.00
2022-07-29T01:56:48.851Z,0.00
2022-07-29T01:57:49.002Z,0.00
2022-07-29T01:58:49.161Z,0.00
2022-07-29T01:59:49.321Z,0.00
2022-07-29T02:00:49.483Z,0.00
2022-07-29T02:01:49.700Z,0.00
2022-07-29T02:02:50.814Z,0.00
2022-07-29T02:03:49.996Z,0.00
2022-07-29T02:04:50.238Z,0.00
2022-07-29T02:05:50.344Z,0.00
2022-07-29T02:06:50.555Z,0.00
2022-07-29T02:07:50.684Z,0.00
2022-07-29T02:08:50.843Z,0.00
2022-07-29T02:09:50.995Z,0.00
2022-07-29T02:10:51.160Z,0.00
2022-07-29T02:11:51.346Z,0.00
2022-07-29T02:12:51.500Z,0.00
2022-07-29T02:13:51.697Z,0.00
2022-07-29T02:14:51.849Z,0.00
2022-07-29T02:15:52.140Z,0.00
2022-07-29T02:16:52.205Z,0.00
2022-07-29T02:17:52.402Z,0.00
2022-07-29T02:18:52.568Z,0.00
2022-07-29T02:19:52.724Z,0.00
2022-07-29T02:20:52.889Z,0.00
2022-07-29T02:21:53.049Z,0.00
2022-07-29T02:22:53.223Z,0.00
2022-07-29T02:23:53.380Z,0.00
2022-07-29T02:24:53.536Z,0.00
2022-07-29T02:25:53.766Z,0.00
2022-07-29T02:26:53.891Z,0.00
2022-07-29T02:27:54.053Z,0.00
2022-07-29T02:28:54.210Z,0.00
2022-07-29T02:29:54.370Z,0.00
2022-07-29T02:30:54.601Z,0.00
2022-07-29T02:31:54.716Z,0.00
2022-07-29T02:32:54.883Z,0.00
2022-07-29T02:33:55.065Z,0.00
2022-07-29T02:34:55.218Z,0.00
2022-07-29T02:35:55.432Z,0.00
2022-07-29T02:36:55.587Z,0.00
2022-07-29T02:37:55.785Z,0.00
2022-07-29T02:38:55.946Z,0.00
2022-07-29T02:39:56.110Z,0.00
2022-07-29T02:40:56.297Z,0.00
2022-07-29T02:41:56.419Z,0.00
2022-07-29T02:42:56.615Z,0.00
2022-07-29T02:43:56.803Z,0.00
2022-07-29T02:44:56.956Z,0.00
2022-07-29T02:45:57.239Z,0.00
2022-07-29T02:46:57.344Z,0.00
2022-07-29T02:47:57.481Z,0.00
2022-07-29T02:48:57.695Z,0.00
2022-07-29T02:49:57.851Z,0.00
2022-07-29T02:50:58.021Z,0.00
2022-07-29T02:51:58.184Z,0.00
2022-07-29T02:52:58.331Z,0.00
2022-07-29T02:53:58.534Z,0.00
2022-07-29T02:54:58.712Z,0.00
2022-07-29T02:55:58.872Z,0.00
2022-07-29T02:56:59.023Z,0.00
2022-07-29T02:57:59.182Z,4.00
2022-07-29T02:58:59.346Z,4.00
2022-07-29T02:59:59.536Z,0.00
2022-07-29T03:00:59.693Z,0.00
2022-07-29T03:01:59.950Z,0.00
2022-07-29T03:03:00.027Z,4.00
2022-07-29T03:04:00.176Z,4.00
2022-07-29T03:05:00.430Z,0.00
2022-07-29T03:06:00.536Z,4.00
2022-07-29T03:07:00.702Z,4.00
2022-07-29T03:08:00.859Z,4.00
2022-07-29T03:09:01.014Z,4.00
2022-07-29T03:10:01.196Z,4.00
2022-07-29T03:11:01.350Z,8.00
2022-07-29T03:12:01.506Z,8.00
2022-07-29T03:13:01.657Z,8.00
2022-07-29T03:14:01.879Z,8.00
2022-07-29T03:15:02.032Z,8.00
2022-07-29T03:16:02.270Z,12.00
2022-07-29T03:17:02.368Z,12.00
2022-07-29T03:18:02.548Z,12.00
2022-07-29T03:19:02.721Z,16.00
2022-07-29T03:20:02.899Z,16.00
2022-07-29T03:21:03.098Z,16.00
2022-07-29T03:22:03.252Z,20.00
2022-07-29T03:23:03.414Z,16.00
2022-07-29T03:24:09.808Z,20.00
2022-07-29T03:25:04.775Z,20.00
2022-07-29T03:26:03.943Z,24.00
2022-07-29T03:27:04.123Z,24.00
2022-07-29T03:28:04.303Z,28.00
2022-07-29T03:29:04.479Z,28.00
2022-07-29T03:30:04.681Z,32.00
2022-07-29T03:31:04.934Z,28.00
2022-07-29T03:32:08.302Z,32.00
2022-07-29T03:33:05.193Z,32.00
2022-07-29T03:34:06.383Z,40.00
2022-07-29T03:35:05.574Z,36.00
2022-07-29T03:36:05.756Z,40.00
2022-07-29T03:37:05.927Z,48.00
2022-07-29T03:38:06.109Z,48.00
2022-07-29T03:39:06.290Z,48.00
2022-07-29T03:40:06.510Z,52.00
2022-07-29T03:41:06.647Z,56.00
2022-07-29T03:42:06.826Z,60.00
2022-07-29T03:43:07.004Z,64.00
2022-07-29T03:44:07.185Z,68.00
2022-07-29T03:45:07.374Z,76.00
2022-07-29T03:46:07.578Z,76.00
2022-07-29T03:47:07.678Z,84.00
2022-07-29T03:48:07.858Z,84.00
2022-07-29T03:49:08.110Z,92.00
2022-07-29T03:50:10.827Z,92.00
2022-07-29T03:51:08.415Z,96.00
2022-07-29T03:52:08.570Z,100.00
2022-07-29T03:53:08.728Z,100.00
2022-07-29T03:54:10.303Z,104.00
2022-07-29T03:55:09.082Z,104.00
2022-07-29T03:56:09.251Z,108.00
2022-07-29T03:57:09.412Z,108.00
2022-07-29T03:58:09.568Z,108.00
2022-07-29T03:59:09.762Z,112.00
2022-07-29T04:00:09.953Z,112.00
2022-07-29T04:01:10.110Z,120.00
2022-07-29T04:02:10.381Z,124.00
2022-07-29T04:03:11.804Z,124.00
2022-07-29T04:04:10.675Z,132.00
2022-07-29T04:05:10.856Z,132.00
2022-07-29T04:06:11.038Z,132.00
2022-07-29T04:07:11.196Z,136.00
2022-07-29T04:08:11.391Z,136.00
2022-07-29T04:09:11.557Z,136.00
2022-07-29T04:10:11.717Z,140.00
2022-07-29T04:11:11.911Z,144.00
2022-07-29T04:12:12.082Z,144.00
2022-07-29T04:13:12.247Z,140.00
2022-07-29T04:14:12.694Z,140.00
2022-07-29T04:15:12.624Z,140.00
2022-07-29T04:16:12.833Z,144.00
2022-07-29T04:17:12.975Z,140.00
2022-07-29T04:18:13.158Z,144.00
2022-07-29T04:19:13.324Z,144.00
2022-07-29T04:20:13.510Z,148.00
2022-07-29T04:21:13.655Z,144.00
2022-07-29T04:22:13.849Z,144.00
2022-07-29T04:23:14.034Z,144.00
2022-07-29T04:24:14.540Z,144.00
2022-07-29T04:25:14.386Z,144.00
2022-07-29T04:26:14.563Z,144.00
2022-07-29T04:27:14.742Z,148.00
2022-07-29T04:28:14.894Z,152.00
2022-07-29T04:29:15.084Z,156.00
2022-07-29T04:30:15.225Z,164.00
2022-07-29T04:31:15.476Z,172.00
2022-07-29T04:32:15.605Z,180.00
2022-07-29T04:33:15.785Z,192.00
2022-07-29T04:34:16.306Z,196.00
2022-07-29T04:35:16.136Z,204.00
2022-07-29T04:36:28.852Z,212.00
2022-07-29T04:37:17.507Z,216.00
2022-07-29T04:38:17.265Z,228.00
2022-07-29T04:39:22.170Z,232.00
2022-07-29T04:40:17.998Z,236.00
2022-07-29T04:41:17.177Z,240.00
2022-07-29T04:42:17.419Z,252.00
2022-07-29T04:43:22.476Z,256.00
2022-07-29T04:44:19.245Z,268.00
2022-07-29T04:45:22.519Z,276.00
2022-07-29T04:46:18.124Z,284.00
2022-07-29T04:47:18.242Z,292.00
2022-07-29T04:48:18.419Z,296.00
2022-07-29T04:49:18.661Z,296.00
2022-07-29T04:50:18.752Z,292.00
2022-07-29T04:51:18.935Z,288.00
2022-07-29T04:52:19.203Z,276.00
2022-07-29T04:53:19.274Z,256.00
2022-07-29T04:54:19.744Z,240.00
2022-07-29T04:55:19.612Z,224.00
2022-07-29T04:56:19.809Z,208.00
2022-07-29T04:57:19.994Z,200.00
2022-07-29T04:58:20.165Z,196.00
2022-07-29T04:59:20.353Z,188.00
2022-07-29T05:00:20.544Z,188.00
2022-07-29T05:01:20.810Z,184.00
2022-07-29T05:02:20.906Z,184.00
2022-07-29T05:03:21.034Z,184.00
2022-07-29T05:04:21.463Z,192.00
2022-07-29T05:05:21.388Z,200.00
2022-07-29T05:06:21.593Z,208.00
2022-07-29T05:07:21.727Z,224.00
2022-07-29T05:08:21.917Z,240.00
2022-07-29T05:09:22.097Z,264.00
2022-07-29T05:10:22.287Z,288.00
2022-07-29T05:11:24.983Z,320.00
2022-07-29T05:12:22.629Z,356.00
2022-07-29T05:13:22.812Z,392.00
2022-07-29T05:14:22.983Z,432.00
2022-07-29T05:15:23.159Z,472.00
2022-07-29T05:16:23.389Z,512.00
2022-07-29T05:17:23.500Z,552.00
2022-07-29T05:18:26.024Z,584.00
2022-07-29T05:19:23.874Z,612.00
2022-07-29T05:20:24.062Z,628.00
2022-07-29T05:21:24.232Z,640.00
2022-07-29T05:22:24.706Z,652.00
2022-07-29T05:23:24.571Z,656.00
2022-07-29T05:24:24.763Z,664.00
2022-07-29T05:25:24.936Z,672.00
2022-07-29T05:26:26.078Z,684.00
2022-07-29T05:27:25.278Z,704.00
2022-07-29T05:28:25.455Z,724.00
2022-07-29T05:29:43.270Z,748.00
2022-07-29T05:30:26.801Z,764.00
2022-07-29T05:31:26.025Z,776.00
2022-07-29T05:32:26.147Z,780.00
2022-07-29T05:33:36.229Z,776.00
2022-07-29T05:34:27.501Z,756.00
2022-07-29T05:35:26.652Z,732.00
2022-07-29T05:36:26.855Z,696.00
2022-07-29T05:37:27.006Z,668.00
2022-07-29T05:38:27.189Z,644.00
2022-07-29T05:39:47.239Z,628.00
2022-07-29T05:40:28.528Z,624.00
2022-07-29T05:41:27.708Z,632.00
2022-07-29T05:42:27.880Z,652.00
2022-07-29T05:43:28.029Z,676.00
2022-07-29T05:44:28.229Z,704.00
2022-07-29T05:45:28.373Z,736.00
2022-07-29T05:46:28.578Z,772.00
2022-07-29T05:47:28.738Z,808.00
2022-07-29T05:48:28.942Z,848.00
2022-07-29T05:49:29.212Z,884.00
2022-07-29T05:50:29.273Z,916.00
2022-07-29T05:51:29.465Z,960.00
2022-07-29T05:52:29.664Z,984.00
2022-07-29T05:53:29.820Z,1012.00
2022-07-29T05:54:37.007Z,1016.00
2022-07-29T05:55:30.145Z,1012.00
2022-07-29T05:56:30.340Z,996.00
2022-07-29T05:57:30.549Z,964.00
2022-07-29T05:58:30.697Z,916.00
2022-07-29T05:59:30.888Z,864.00
2022-07-29T06:00:31.061Z,820.00
2022-07-29T06:01:31.246Z,784.00
2022-07-29T06:02:31.403Z,764.00
2022-07-29T06:03:31.538Z,752.00
2022-07-29T06:04:31.737Z,744.00
2022-07-29T06:05:31.881Z,744.00
2022-07-29T06:06:32.060Z,744.00
2022-07-29T06:07:32.269Z,744.00
2022-07-29T06:08:32.432Z,744.00
2022-07-29T06:09:36.050Z,756.00
2022-07-29T06:10:32.751Z,768.00
2022-07-29T06:11:32.942Z,768.00
2022-07-29T06:12:33.142Z,780.00
2022-07-29T06:13:33.312Z,800.00
2022-07-29T06:14:33.513Z,824.00
2022-07-29T06:15:33.719Z,844.00
2022-07-29T06:16:33.875Z,868.00
2022-07-29T06:17:34.023Z,900.00
2022-07-29T06:18:34.183Z,924.00
2022-07-29T06:19:34.355Z,952.00
2022-07-29T06:20:34.553Z,984.00
2022-07-29T06:21:34.777Z,1008.00
2022-07-29T06:22:34.886Z,1020.00
2022-07-29T06:23:35.084Z,1032.00
2022-07-29T06:24:35.235Z,1044.00
2022-07-29T06:25:35.398Z,1052.00
2022-07-29T06:26:39.699Z,1068.00
2022-07-29T06:27:35.757Z,1108.00
2022-07-29T06:28:35.886Z,1156.00
2022-07-29T06:29:36.085Z,1208.00
2022-07-29T06:30:36.295Z,1256.00
2022-07-29T06:31:36.423Z,1304.00
2022-07-29T06:32:41.324Z,1372.00
2022-07-29T06:33:37.760Z,1436.00
2022-07-29T06:34:36.933Z,1492.00
2022-07-29T06:35:38.750Z,1548.00
2022-07-29T06:36:37.732Z,1604.00
2022-07-29T06:37:37.452Z,1652.00
2022-07-29T06:38:40.600Z,1684.00
2022-07-29T06:39:38.787Z,1700.00
2022-07-29T06:40:37.974Z,1700.00
2022-07-29T06:41:38.101Z,1696.00
2022-07-29T06:42:38.283Z,1688.00
2022-07-29T06:43:50.251Z,1656.00
2022-07-29T06:44:39.659Z,1620.00
2022-07-29T06:45:38.891Z,1604.00
2022-07-29T06:46:39.080Z,1504.00
2022-07-29T06:47:39.161Z,1416.00
2022-07-29T06:48:39.357Z,1344.00
2022-07-29T06:49:39.505Z,1308.00
2022-07-29T06:50:39.679Z,1292.00
2022-07-29T06:51:39.835Z,1296.00
2022-07-29T06:52:40.020Z,1320.00
2022-07-29T06:53:40.206Z,1368.00
2022-07-29T06:54:41.396Z,1424.00
2022-07-29T06:55:40.579Z,1500.00
2022-07-29T06:56:40.753Z,1592.00
2022-07-29T06:57:40.924Z,1696.00
2022-07-29T06:58:41.117Z,1812.00
2022-07-29T06:59:41.289Z,1924.00
2022-07-29T07:00:41.468Z,2012.00
2022-07-29T07:01:41.702Z,2064.00
2022-07-29T07:02:41.902Z,2072.00
2022-07-29T07:03:42.020Z,2068.00
2022-07-29T07:04:42.170Z,2052.00
2022-07-29T07:05:42.348Z,2028.00
2022-07-29T07:06:42.539Z,2000.00
2022-07-29T07:07:42.720Z,1944.00
2022-07-29T07:08:42.921Z,1896.00
2022-07-29T07:09:43.091Z,1860.00
2022-07-29T07:10:43.262Z,1836.00
2022-07-29T07:11:43.441Z,1856.00
2022-07-29T07:12:43.624Z,1912.00
2022-07-29T07:13:43.830Z,1956.00
2022-07-29T07:14:43.973Z,1984.00
2022-07-29T07:15:44.147Z,1988.00
2022-07-29T07:16:44.336Z,1984.00
2022-07-29T07:17:44.494Z,2000.00
2022-07-29T07:18:44.693Z,2012.00
2022-07-29T07:19:44.855Z,1996.00
2022-07-29T07:20:45.037Z,1968.00
2022-07-29T07:21:45.217Z,1936.00
2022-07-29T07:22:45.396Z,1912.00
2022-07-29T07:23:45.600Z,1880.00
2022-07-29T07:24:45.736Z,1856.00
2022-07-29T07:25:45.923Z,1856.00
2022-07-29T07:26:46.117Z,1872.00
2022-07-29T07:27:46.280Z,1916.00
2022-07-29T07:28:46.409Z,1980.00
2022-07-29T07:29:46.592Z,2072.00
2022-07-29T07:30:46.779Z,2168.00
2022-07-29T07:31:47.100Z,2256.00
2022-07-29T07:32:47.139Z,2324.00
2022-07-29T07:33:47.320Z,2412.00
2022-07-29T07:34:47.462Z,2416.00
2022-07-29T07:35:47.641Z,2408.00
2022-07-29T07:36:47.820Z,2356.00
2022-07-29T07:37:48.020Z,2224.00
2022-07-29T07:38:48.162Z,2136.00
2022-07-29T07:39:48.346Z,2096.00
2022-07-29T07:40:48.514Z,2104.00
2022-07-29T07:41:48.698Z,2128.00
2022-07-29T07:42:48.892Z,2132.00
2022-07-29T07:43:49.035Z,2128.00
2022-07-29T07:45:12.104Z,2096.00
2022-07-29T07:45:50.427Z,2064.00
2022-07-29T07:46:49.556Z,2040.00
2022-07-29T07:47:49.754Z,2036.00
2022-07-29T07:48:49.968Z,2032.00
2022-07-29T07:49:50.098Z,2056.00
2022-07-29T07:50:50.306Z,2096.00
2022-07-29T07:51:51.179Z,2084.00
2022-07-29T07:52:50.603Z,2068.00
2022-07-29T07:53:50.789Z,2048.00
2022-07-29T07:54:50.958Z,2036.00
2022-07-29T07:56:09.922Z,2044.00
2022-07-29T07:56:53.338Z,2068.00
2022-07-29T07:57:51.473Z,2128.00
2022-07-29T07:58:51.642Z,2192.00
2022-07-29T07:59:51.830Z,2244.00
2022-07-29T08:00:52.054Z,2292.00
2022-07-29T08:01:55.999Z,2336.00
2022-07-29T08:02:52.435Z,2376.00
2022-07-29T08:03:52.558Z,2400.00
2022-07-29T08:04:52.732Z,2372.00
2022-07-29T08:05:52.994Z,2340.00
2022-07-29T08:06:53.063Z,2292.00
2022-07-29T08:07:53.275Z,2236.00
2022-07-29T08:08:56.257Z,2204.00
2022-07-29T08:09:53.571Z,2168.00
2022-07-29T08:10:53.775Z,2136.00
2022-07-29T08:11:53.927Z,2096.00
2022-07-29T08:12:54.127Z,2072.00
2022-07-29T08:13:54.293Z,2068.00
2022-07-29T08:14:54.470Z,2088.00
2022-07-29T08:15:54.654Z,2148.00
2022-07-29T08:16:54.889Z,2180.00
2022-07-29T08:17:55.057Z,2196.00
2022-07-29T08:18:55.204Z,2228.00
2022-07-29T08:19:55.368Z,2240.00
2022-07-29T08:20:55.546Z,2236.00
2022-07-29T08:21:56.019Z,2200.00
2022-07-29T08:22:55.929Z,2180.00
2022-07-29T08:24:00.750Z,2160.00
2022-07-29T08:24:57.260Z,2152.00
2022-07-29T08:25:56.442Z,2156.00
2022-07-29T08:26:56.619Z,2168.00
2022-07-29T08:27:56.825Z,2172.00
2022-07-29T08:28:56.992Z,2184.00
2022-07-29T08:29:57.188Z,2192.00
2022-07-29T08:30:57.352Z,2184.00
2022-07-29T08:31:57.592Z,2176.00
2022-07-29T08:32:57.727Z,2164.00
2022-07-29T08:33:57.879Z,2144.00
2022-07-29T08:34:58.033Z,2136.00
2022-07-29T08:35:58.222Z,2120.00
2022-07-29T08:36:58.405Z,2124.00
2022-07-29T08:37:58.584Z,2148.00
2022-07-29T08:38:58.806Z,2216.00
2022-07-29T08:39:58.939Z,2240.00
2022-07-29T08:40:59.126Z,2224.00
2022-07-29T08:41:59.403Z,2288.00
2022-07-29T08:42:59.478Z,2416.00
2022-07-29T08:43:59.676Z,2580.00
2022-07-29T08:44:59.849Z,2732.00
2022-07-29T08:46:00.083Z,2908.00
2022-07-29T08:47:00.208Z,3172.00
2022-07-29T08:48:00.388Z,3444.00
2022-07-29T08:49:00.631Z,3584.00
2022-07-29T08:50:00.749Z,3636.00
2022-07-29T08:51:00.898Z,3640.00
2022-07-29T08:52:01.081Z,3584.00
2022-07-29T08:53:01.259Z,3568.00
2022-07-29T08:54:01.454Z,3524.00
2022-07-29T08:55:01.624Z,3316.00
2022-07-29T08:56:01.775Z,3232.00
2022-07-29T08:57:01.920Z,3320.00
2022-07-29T08:58:02.077Z,3160.00
2022-07-29T08:59:02.274Z,3080.00
2022-07-29T09:00:07.097Z,3064.00
2022-07-29T09:01:03.622Z,3072.00
2022-07-29T09:02:02.810Z,3064.00
2022-07-29T09:03:02.924Z,3148.00
2022-07-29T09:04:03.238Z,3184.00
2022-07-29T09:05:03.295Z,3272.00
2022-07-29T09:06:03.482Z,3288.00
2022-07-29T09:07:03.655Z,3328.00
2022-07-29T09:08:03.837Z,3224.00
2022-07-29T09:09:04.037Z,3156.00
2022-07-29T09:10:04.208Z,3396.00
2022-07-29T09:11:05.754Z,3280.00
2022-07-29T09:12:04.549Z,3212.00
2022-07-29T09:13:04.723Z,3172.00
2022-07-29T09:14:04.919Z,3140.00
2022-07-29T09:15:05.086Z,3128.00
2022-07-29T09:16:09.179Z,3032.00
2022-07-29T09:17:05.751Z,2976.00
2022-07-29T09:18:05.605Z,2924.00
2022-07-29T09:19:05.790Z,2860.00
2022-07-29T09:20:05.935Z,2840.00
2022-07-29T09:21:06.119Z,2904.00
2022-07-29T09:22:06.313Z,3012.00
2022-07-29T09:23:06.482Z,3084.00
2022-07-29T09:24:06.663Z,3184.00
2022-07-29T09:25:06.843Z,3200.00
2022-07-29T09:26:07.024Z,3260.00
2022-07-29T09:27:07.216Z,3372.00
2022-07-29T09:28:07.364Z,3484.00
2022-07-29T09:29:07.547Z,3596.00
2022-07-29T09:30:07.745Z,3700.00
2022-07-29T09:31:07.930Z,3808.00
2022-07-29T09:32:08.160Z,3872.00
2022-07-29T09:33:08.236Z,3964.00
2022-07-29T09:34:08.417Z,4124.00
2022-07-29T09:35:08.616Z,4412.00
2022-07-29T09:36:08.787Z,4600.00
2022-07-29T09:37:08.969Z,4736.00
2022-07-29T09:38:09.150Z,4836.00
2022-07-29T09:39:09.365Z,4792.00
2022-07-29T09:40:11.783Z,5024.00
2022-07-29T09:41:09.672Z,5096.00
2022-07-29T09:42:09.859Z,5064.00
2022-07-29T09:43:10.039Z,4932.00
2022-07-29T09:44:10.241Z,4980.00
2022-07-29T09:45:10.390Z,4764.00
2022-07-29T09:46:12.277Z,4892.00
2022-07-29T09:47:10.778Z,4924.00
2022-07-29T09:48:10.913Z,4972.00
2022-07-29T09:49:11.147Z,5020.00
2022-07-29T09:50:11.263Z,5016.00
2022-07-29T09:51:11.443Z,4872.00
2022-07-29T09:52:11.614Z,4892.00
2022-07-29T09:53:11.803Z,4804.00
2022-07-29T09:54:11.956Z,4676.00
2022-07-29T09:55:13.644Z,4660.00
2022-07-29T09:56:13.294Z,4604.00
2022-07-29T09:57:12.495Z,4640.00
2022-07-29T09:58:12.626Z,4676.00
2022-07-29T09:59:12.809Z,4712.00
2022-07-29T10:00:12.988Z,5004.00
2022-07-29T10:01:13.217Z,5240.00
2022-07-29T10:02:13.348Z,4376.00
2022-07-29T10:03:13.563Z,4160.00
2022-07-29T10:04:13.659Z,4048.00
2022-07-29T10:05:13.839Z,4016.00
2022-07-29T10:06:14.009Z,3952.00
2022-07-29T10:07:14.213Z,4080.00
2022-07-29T10:08:14.352Z,4188.00
2022-07-29T10:09:14.531Z,3604.00
2022-07-29T10:10:14.801Z,3392.00
2022-07-29T10:11:14.890Z,3200.00
2022-07-29T10:12:15.086Z,2768.00
2022-07-29T10:13:16.340Z,2592.00
2022-07-29T10:14:15.418Z,2564.00
2022-07-29T10:15:15.593Z,2532.00
2022-07-29T10:16:15.836Z,2572.00
2022-07-29T10:17:15.945Z,2660.00
2022-07-29T10:18:16.084Z,2748.00
2022-07-29T10:19:16.263Z,2864.00
2022-07-29T10:20:16.654Z,2980.00
2022-07-29T10:21:34.909Z,3064.00
2022-07-29T10:22:43.329Z,3132.00
2022-07-29T10:23:18.000Z,3156.00
2022-07-29T10:24:17.179Z,3152.00
2022-07-29T10:25:17.343Z,3084.00
2022-07-29T10:26:17.518Z,2968.00
2022-07-29T10:27:17.712Z,2972.00
2022-07-29T10:28:17.881Z,3236.00
2022-07-29T10:29:18.023Z,2772.00
2022-07-29T10:30:18.199Z,2716.00
2022-07-29T10:31:18.437Z,2752.00
2022-07-29T10:32:18.550Z,2884.00
2022-07-29T10:33:18.694Z,3116.00
2022-07-29T10:34:18.872Z,3372.00
2022-07-29T10:35:19.062Z,3596.00
2022-07-29T10:36:19.241Z,3844.00
2022-07-29T10:37:19.466Z,4168.00
2022-07-29T10:38:19.593Z,5128.00
2022-07-29T10:39:22.363Z,5332.00
2022-07-29T10:40:19.973Z,5344.00
2022-07-29T10:41:20.145Z,5404.00
2022-07-29T10:42:20.391Z,5636.00
2022-07-29T10:43:21.487Z,5040.00
2022-07-29T10:44:22.889Z,5376.00
2022-07-29T10:45:21.447Z,5232.00
2022-07-29T10:46:21.046Z,516.00
2022-07-29T10:47:21.262Z,556.00
2022-07-29T10:48:21.395Z,588.00
2022-07-29T10:49:24.729Z,532.00
2022-07-29T10:50:21.739Z,456.00
2022-07-29T10:51:21.882Z,612.00
2022-07-29T10:52:26.570Z,568.00
2022-07-29T10:53:23.255Z,544.00
2022-07-29T10:54:22.418Z,664.00
2022-07-29T10:55:22.599Z,600.00
2022-07-29T10:56:22.760Z,508.00
2022-07-29T10:57:25.934Z,712.00
2022-07-29T10:58:24.090Z,724.00
2022-07-29T10:59:23.565Z,736.00
2022-07-29T11:00:23.456Z,672.00
2022-07-29T11:01:37.156Z,652.00
2022-07-29T11:02:41.360Z,616.00
2022-07-29T11:03:24.997Z,672.00
2022-07-29T11:04:24.135Z,848.00
2022-07-29T11:05:24.295Z,936.00
2022-07-29T11:06:26.891Z,1140.00
2022-07-29T11:07:24.624Z,1440.00
2022-07-29T11:08:26.377Z,636.00
2022-07-29T11:09:25.722Z,2516.00
2022-07-29T11:10:26.977Z,2688.00
2022-07-29T11:11:29.755Z,2192.00
2022-07-29T11:12:25.487Z,1680.00
2022-07-29T11:13:25.606Z,1116.00
2022-07-29T11:14:26.556Z,736.00
2022-07-29T11:15:28.431Z,576.00
2022-07-29T11:16:26.156Z,548.00
2022-07-29T11:17:26.328Z,544.00
2022-07-29T11:18:26.498Z,520.00
2022-07-29T11:19:30.504Z,552.00
2022-07-29T11:20:26.819Z,556.00
2022-07-29T11:21:26.981Z,548.00
2022-07-29T11:22:28.180Z,536.00
2022-07-29T11:23:27.356Z,636.00
2022-07-29T11:24:28.968Z,624.00
2022-07-29T11:25:42.366Z,628.00
2022-07-29T11:26:28.861Z,656.00
2022-07-29T11:27:28.604Z,608.00
2022-07-29T11:28:28.364Z,636.00
2022-07-29T11:29:28.474Z,508.00
2022-07-29T11:30:28.564Z,632.00
2022-07-29T11:31:28.754Z,664.00
2022-07-29T11:32:29.201Z,736.00
2022-07-29T11:33:54.207Z,736.00
2022-07-29T11:34:30.268Z,832.00
2022-07-29T11:35:38.008Z,888.00
2022-07-29T11:36:30.645Z,3216.00
2022-07-29T11:37:29.816Z,10444.00
2022-07-29T11:38:32.079Z,5536.00
2022-07-29T11:39:36.803Z,1204.00
2022-07-29T11:40:31.317Z,936.00
2022-07-29T11:41:31.857Z,888.00
2022-07-29T11:42:32.955Z,856.00
2022-07-29T11:43:30.859Z,812.00
2022-07-29T11:44:31.012Z,796.00
2022-07-29T11:45:43.923Z,768.00
2022-07-29T11:46:32.384Z,728.00
2022-07-29T11:47:31.595Z,696.00
2022-07-29T11:48:32.718Z,920.00
2022-07-29T11:49:33.325Z,1044.00
2022-07-29T11:50:32.046Z,784.00
2022-07-29T11:51:32.786Z,712.00
2022-07-29T11:52:32.371Z,696.00
2022-07-29T11:53:33.391Z,676.00
2022-07-29T11:54:57.336Z,672.00
2022-07-29T11:55:34.008Z,660.00
2022-07-29T11:56:33.101Z,672.00
2022-07-29T11:57:36.362Z,692.00
2022-07-29T11:58:33.408Z,696.00
2022-07-29T11:59:34.804Z,700.00
2022-07-29T12:00:33.756Z,364.00
2022-07-29T12:01:33.952Z,668.00
2022-07-29T12:02:37.088Z,628.00
2022-07-29T12:03:35.840Z,640.00
2022-07-29T12:04:34.467Z,664.00
2022-07-29T12:05:36.433Z,672.00
2022-07-29T12:06:34.844Z,708.00
2022-07-29T12:07:35.449Z,680.00
2022-07-29T12:08:35.170Z,668.00
2022-07-29T12:09:40.149Z,576.00
2022-07-29T12:10:36.541Z,600.00
2022-07-29T12:11:35.702Z,700.00
2022-07-29T12:12:35.874Z,524.00
2022-07-29T12:13:37.239Z,512.00
2022-07-29T12:14:36.202Z,432.00
2022-07-29T12:15:46.246Z,528.00
2022-07-29T12:16:37.535Z,668.00
2022-07-29T12:17:36.849Z,624.00
2022-07-29T12:18:36.877Z,624.00
2022-07-29T12:19:37.041Z,656.00
2022-07-29T12:20:37.243Z,664.00
2022-07-29T12:21:37.413Z,664.00
2022-07-29T12:22:38.595Z,660.00
2022-07-29T12:23:37.765Z,676.00
2022-07-29T12:24:37.955Z,684.00
2022-07-29T12:25:38.114Z,664.00
2022-07-29T12:26:38.291Z,636.00
2022-07-29T12:27:40.245Z,688.00
2022-07-29T12:28:38.654Z,704.00
2022-07-29T12:29:38.801Z,728.00
2022-07-29T12:30:39.970Z,816.00
2022-07-29T12:31:43.140Z,908.00
2022-07-29T12:32:40.415Z,2080.00
2022-07-29T12:33:39.472Z,2504.00
2022-07-29T12:34:39.654Z,1316.00